sensor_id;sensor_type;location;lat;lon;timestamp;P1;durP1;ratioP1;P2;durP2;ratioP2
74612;SDS011;63119;51.788;8.824;2023-09-30T00:00:53;6.03;;;2.20;;
74612;SDS011;63119;51.788;8.824;2023-09-30T00:03:18;12.57;;;2.50;;
74612;SDS011;63119;51.788;8.824;2023-09-30T00:05:43;10.77;;;2.77;;
74612;SDS011;63119;51.788;8.824;2023-09-30T00:08:09;7.43;;;2.80;;
74612;SDS011;63119;51.788;8.824;2023-09-30T00:10:34;8.68;;;2.47;;
74612;SDS011;63119;51.788;8.824;2023-09-30T00:12:59;7.82;;;2.42;;
74612;SDS011;63119;51.788;8.824;2023-09-30T00:15:25;9.60;;;3.13;;
74612;SDS011;63119;51.788;8.824;2023-09-30T00:17:50;9.57;;;2.77;;
74612;SDS011;63119;51.788;8.824;2023-09-30T00:20:15;9.82;;;2.17;;
74612;SDS011;63119;51.788;8.824;2023-09-30T00:22:41;8.30;;;2.22;;
74612;SDS011;63119;51.788;8.824;2023-09-30T00:25:07;5.55;;;2.13;;
74612;SDS011;63119;51.788;8.824;2023-09-30T00:27:32;13.10;;;3.22;;
74612;SDS011;63119;51.788;8.824;2023-09-30T00:29:57;12.03;;;2.70;;
74612;SDS011;63119;51.788;8.824;2023-09-30T00:32:23;10.67;;;2.60;;
74612;SDS011;63119;51.788;8.824;2023-09-30T00:34:48;10.75;;;2.97;;
74612;SDS011;63119;51.788;8.824;2023-09-30T00:37:13;10.57;;;3.38;;
74612;SDS011;63119;51.788;8.824;2023-09-30T00:39:39;8.70;;;2.37;;
74612;SDS011;63119;51.788;8.824;2023-09-30T00:42:04;11.30;;;3.10;;
74612;SDS011;63119;51.788;8.824;2023-09-30T00:44:29;10.38;;;3.47;;
74612;SDS011;63119;51.788;8.824;2023-09-30T00:46:56;9.32;;;2.42;;
74612;SDS011;63119;51.788;8.824;2023-09-30T00:49:22;8.40;;;2.97;;
74612;SDS011;63119;51.788;8.824;2023-09-30T00:51:49;8.65;;;2.38;;
74612;SDS011;63119;51.788;8.824;2023-09-30T00:54:14;9.45;;;3.17;;
74612;SDS011;63119;51.788;8.824;2023-09-30T00:56:45;7.40;;;2.42;;
74612;SDS011;63119;51.788;8.824;2023-09-30T00:59:12;8.93;;;2.67;;
74612;SDS011;63119;51.788;8.824;2023-09-30T01:01:39;9.13;;;2.97;;
74612;SDS011;63119;51.788;8.824;2023-09-30T01:04:05;7.18;;;2.78;;
74612;SDS011;63119;51.788;8.824;2023-09-30T01:06:30;7.05;;;2.58;;
74612;SDS011;63119;51.788;8.824;2023-09-30T01:08:56;6.97;;;2.42;;
74612;SDS011;63119;51.788;8.824;2023-09-30T01:11:22;9.02;;;2.47;;
74612;SDS011;63119;51.788;8.824;2023-09-30T01:13:47;8.30;;;2.25;;
74612;SDS011;63119;51.788;8.824;2023-09-30T01:16:14;6.10;;;2.17;;
74612;SDS011;63119;51.788;8.824;2023-09-30T01:18:40;8.90;;;3.03;;
74612;SDS011;63119;51.788;8.824;2023-09-30T01:21:07;7.80;;;2.88;;
74612;SDS011;63119;51.788;8.824;2023-09-30T01:23:33;5.30;;;2.63;;
74612;SDS011;63119;51.788;8.824;2023-09-30T01:26:03;8.32;;;2.83;;
74612;SDS011;63119;51.788;8.824;2023-09-30T01:30:56;8.18;;;2.60;;
74612;SDS011;63119;51.788;8.824;2023-09-30T01:33:22;11.20;;;2.88;;
74612;SDS011;63119;51.788;8.824;2023-09-30T01:35:48;9.35;;;3.42;;
74612;SDS011;63119;51.788;8.824;2023-09-30T01:38:13;7.90;;;2.70;;
74612;SDS011;63119;51.788;8.824;2023-09-30T01:40:39;8.63;;;2.63;;
74612;SDS011;63119;51.788;8.824;2023-09-30T01:43:04;6.03;;;2.80;;
74612;SDS011;63119;51.788;8.824;2023-09-30T01:45:29;5.77;;;2.90;;
74612;SDS011;63119;51.788;8.824;2023-09-30T01:47:55;11.00;;;3.30;;
74612;SDS011;63119;51.788;8.824;2023-09-30T01:50:20;11.93;;;3.47;;
74612;SDS011;63119;51.788;8.824;2023-09-30T01:52:45;6.30;;;3.07;;
74612;SDS011;63119;51.788;8.824;2023-09-30T01:55:10;11.27;;;2.97;;
74612;SDS011;63119;51.788;8.824;2023-09-30T01:57:36;10.95;;;3.05;;
74612;SDS011;63119;51.788;8.824;2023-09-30T02:00:02;6.85;;;2.90;;
74612;SDS011;63119;51.788;8.824;2023-09-30T02:02:27;5.97;;;2.75;;
74612;SDS011;63119;51.788;8.824;2023-09-30T02:04:52;10.80;;;2.43;;
74612;SDS011;63119;51.788;8.824;2023-09-30T02:07:18;7.63;;;3.08;;
74612;SDS011;63119;51.788;8.824;2023-09-30T02:09:43;12.63;;;3.00;;
74612;SDS011;63119;51.788;8.824;2023-09-30T02:12:09;9.85;;;2.92;;
74612;SDS011;63119;51.788;8.824;2023-09-30T02:14:34;6.13;;;2.90;;
74612;SDS011;63119;51.788;8.824;2023-09-30T02:16:59;10.63;;;2.83;;
74612;SDS011;63119;51.788;8.824;2023-09-30T02:19:25;9.15;;;2.85;;
74612;SDS011;63119;51.788;8.824;2023-09-30T02:21:52;7.97;;;2.67;;
74612;SDS011;63119;51.788;8.824;2023-09-30T02:24:17;6.83;;;2.50;;
74612;SDS011;63119;51.788;8.824;2023-09-30T02:26:42;8.77;;;2.83;;
74612;SDS011;63119;51.788;8.824;2023-09-30T02:29:08;10.52;;;2.97;;
74612;SDS011;63119;51.788;8.824;2023-09-30T02:31:33;9.10;;;2.90;;
74612;SDS011;63119;51.788;8.824;2023-09-30T02:33:59;7.50;;;2.72;;
74612;SDS011;63119;51.788;8.824;2023-09-30T02:36:24;9.20;;;2.60;;
74612;SDS011;63119;51.788;8.824;2023-09-30T02:38:49;9.65;;;3.33;;
74612;SDS011;63119;51.788;8.824;2023-09-30T02:41:15;7.85;;;2.42;;
74612;SDS011;63119;51.788;8.824;2023-09-30T02:43:41;8.93;;;3.13;;
74612;SDS011;63119;51.788;8.824;2023-09-30T02:46:06;8.03;;;2.60;;
74612;SDS011;63119;51.788;8.824;2023-09-30T02:48:33;9.23;;;3.22;;
74612;SDS011;63119;51.788;8.824;2023-09-30T02:50:58;8.10;;;2.83;;
74612;SDS011;63119;51.788;8.824;2023-09-30T02:53:23;8.93;;;3.10;;
74612;SDS011;63119;51.788;8.824;2023-09-30T02:55:49;9.17;;;3.23;;
74612;SDS011;63119;51.788;8.824;2023-09-30T03:00:47;7.07;;;2.70;;
74612;SDS011;63119;51.788;8.824;2023-09-30T03:03:14;9.40;;;3.22;;
74612;SDS011;63119;51.788;8.824;2023-09-30T03:05:39;10.45;;;3.38;;
74612;SDS011;63119;51.788;8.824;2023-09-30T03:08:05;8.57;;;3.47;;
74612;SDS011;63119;51.788;8.824;2023-09-30T03:10:30;8.67;;;3.70;;
74612;SDS011;63119;51.788;8.824;2023-09-30T03:12:56;11.70;;;3.92;;
74612;SDS011;63119;51.788;8.824;2023-09-30T03:15:26;10.93;;;3.30;;
74612;SDS011;63119;51.788;8.824;2023-09-30T03:17:51;8.60;;;3.17;;
74612;SDS011;63119;51.788;8.824;2023-09-30T03:20:18;11.02;;;3.42;;
74612;SDS011;63119;51.788;8.824;2023-09-30T03:22:45;11.15;;;3.53;;
74612;SDS011;63119;51.788;8.824;2023-09-30T03:25:13;7.38;;;3.00;;
74612;SDS011;63119;51.788;8.824;2023-09-30T03:27:42;12.00;;;3.70;;
74612;SDS011;63119;51.788;8.824;2023-09-30T03:30:08;11.15;;;2.75;;
74612;SDS011;63119;51.788;8.824;2023-09-30T03:32:34;12.95;;;3.78;;
74612;SDS011;63119;51.788;8.824;2023-09-30T03:35:06;10.30;;;4.05;;
74612;SDS011;63119;51.788;8.824;2023-09-30T03:37:33;7.63;;;3.30;;
74612;SDS011;63119;51.788;8.824;2023-09-30T03:39:59;7.30;;;3.15;;
74612;SDS011;63119;51.788;8.824;2023-09-30T03:42:25;11.68;;;3.53;;
74612;SDS011;63119;51.788;8.824;2023-09-30T03:44:51;10.53;;;3.43;;
74612;SDS011;63119;51.788;8.824;2023-09-30T03:47:16;10.20;;;3.20;;
74612;SDS011;63119;51.788;8.824;2023-09-30T03:49:42;10.13;;;3.53;;
74612;SDS011;63119;51.788;8.824;2023-09-30T03:52:08;11.85;;;4.20;;
74612;SDS011;63119;51.788;8.824;2023-09-30T03:54:34;12.77;;;3.38;;
74612;SDS011;63119;51.788;8.824;2023-09-30T03:56:59;8.60;;;3.80;;
74612;SDS011;63119;51.788;8.824;2023-09-30T03:59:25;8.10;;;3.80;;
74612;SDS011;63119;51.788;8.824;2023-09-30T04:01:51;10.55;;;3.95;;
74612;SDS011;63119;51.788;8.824;2023-09-30T04:04:18;11.27;;;4.10;;
74612;SDS011;63119;51.788;8.824;2023-09-30T04:06:44;12.52;;;3.65;;
74612;SDS011;63119;51.788;8.824;2023-09-30T04:09:09;14.43;;;4.07;;
74612;SDS011;63119;51.788;8.824;2023-09-30T04:11:35;8.80;;;3.90;;
74612;SDS011;63119;51.788;8.824;2023-09-30T04:14:01;10.35;;;3.70;;
74612;SDS011;63119;51.788;8.824;2023-09-30T04:16:27;12.68;;;4.05;;
74612;SDS011;63119;51.788;8.824;2023-09-30T04:18:54;10.68;;;3.95;;
74612;SDS011;63119;51.788;8.824;2023-09-30T04:21:20;10.85;;;3.90;;
74612;SDS011;63119;51.788;8.824;2023-09-30T04:23:45;11.70;;;4.53;;
74612;SDS011;63119;51.788;8.824;2023-09-30T04:26:11;9.35;;;3.90;;
74612;SDS011;63119;51.788;8.824;2023-09-30T04:28:36;14.43;;;4.10;;
74612;SDS011;63119;51.788;8.824;2023-09-30T04:31:02;14.23;;;4.27;;
74612;SDS011;63119;51.788;8.824;2023-09-30T04:33:28;11.40;;;3.90;;
74612;SDS011;63119;51.788;8.824;2023-09-30T04:35:53;11.27;;;3.70;;
74612;SDS011;63119;51.788;8.824;2023-09-30T04:38:18;7.57;;;3.70;;
74612;SDS011;63119;51.788;8.824;2023-09-30T04:40:44;11.57;;;4.43;;
74612;SDS011;63119;51.788;8.824;2023-09-30T04:43:09;11.65;;;4.05;;
74612;SDS011;63119;51.788;8.824;2023-09-30T04:45:35;10.20;;;3.88;;
74612;SDS011;63119;51.788;8.824;2023-09-30T04:48:01;11.82;;;4.32;;
74612;SDS011;63119;51.788;8.824;2023-09-30T04:50:27;9.10;;;4.15;;
74612;SDS011;63119;51.788;8.824;2023-09-30T04:52:52;12.68;;;3.90;;
74612;SDS011;63119;51.788;8.824;2023-09-30T04:55:18;9.30;;;4.32;;
74612;SDS011;63119;51.788;8.824;2023-09-30T04:57:44;16.40;;;5.10;;
74612;SDS011;63119;51.788;8.824;2023-09-30T05:00:11;15.27;;;4.53;;
74612;SDS011;63119;51.788;8.824;2023-09-30T05:02:38;10.75;;;4.45;;
74612;SDS011;63119;51.788;8.824;2023-09-30T05:05:04;13.15;;;4.45;;
74612;SDS011;63119;51.788;8.824;2023-09-30T05:07:33;13.65;;;5.15;;
74612;SDS011;63119;51.788;8.824;2023-09-30T05:09:58;11.87;;;4.30;;
74612;SDS011;63119;51.788;8.824;2023-09-30T05:12:24;14.95;;;4.75;;
74612;SDS011;63119;51.788;8.824;2023-09-30T05:14:50;11.65;;;5.18;;
74612;SDS011;63119;51.788;8.824;2023-09-30T05:17:15;15.02;;;5.20;;
74612;SDS011;63119;51.788;8.824;2023-09-30T05:19:41;14.43;;;5.37;;
74612;SDS011;63119;51.788;8.824;2023-09-30T05:22:06;17.00;;;4.87;;
74612;SDS011;63119;51.788;8.824;2023-09-30T05:24:31;18.23;;;5.65;;
74612;SDS011;63119;51.788;8.824;2023-09-30T05:26:56;17.93;;;4.47;;
74612;SDS011;63119;51.788;8.824;2023-09-30T05:29:22;14.30;;;4.57;;
74612;SDS011;63119;51.788;8.824;2023-09-30T05:31:48;15.07;;;4.45;;
74612;SDS011;63119;51.788;8.824;2023-09-30T05:34:13;16.65;;;5.40;;
74612;SDS011;63119;51.788;8.824;2023-09-30T05:36:39;14.38;;;4.45;;
74612;SDS011;63119;51.788;8.824;2023-09-30T05:39:04;17.58;;;6.03;;
74612;SDS011;63119;51.788;8.824;2023-09-30T05:41:30;19.85;;;5.57;;
74612;SDS011;63119;51.788;8.824;2023-09-30T05:43:56;10.98;;;4.65;;
74612;SDS011;63119;51.788;8.824;2023-09-30T05:46:21;14.98;;;4.50;;
74612;SDS011;63119;51.788;8.824;2023-09-30T05:48:46;15.10;;;4.43;;
74612;SDS011;63119;51.788;8.824;2023-09-30T05:51:12;12.60;;;4.60;;
74612;SDS011;63119;51.788;8.824;2023-09-30T05:53:40;14.65;;;5.13;;
74612;SDS011;63119;51.788;8.824;2023-09-30T05:56:06;9.63;;;4.30;;
74612;SDS011;63119;51.788;8.824;2023-09-30T05:58:32;12.98;;;3.97;;
74612;SDS011;63119;51.788;8.824;2023-09-30T06:00:57;13.70;;;5.00;;
74612;SDS011;63119;51.788;8.824;2023-09-30T06:03:22;13.17;;;4.80;;
74612;SDS011;63119;51.788;8.824;2023-09-30T06:05:48;14.97;;;4.73;;
74612;SDS011;63119;51.788;8.824;2023-09-30T06:08:13;12.45;;;4.78;;
74612;SDS011;63119;51.788;8.824;2023-09-30T06:10:39;12.30;;;4.60;;
74612;SDS011;63119;51.788;8.824;2023-09-30T06:13:08;14.10;;;5.00;;
74612;SDS011;63119;51.788;8.824;2023-09-30T06:15:34;11.75;;;4.45;;
74612;SDS011;63119;51.788;8.824;2023-09-30T06:18:02;14.60;;;4.18;;
74612;SDS011;63119;51.788;8.824;2023-09-30T06:20:29;14.10;;;4.50;;
74612;SDS011;63119;51.788;8.824;2023-09-30T06:22:55;18.83;;;4.28;;
74612;SDS011;63119;51.788;8.824;2023-09-30T06:25:21;12.30;;;4.53;;
74612;SDS011;63119;51.788;8.824;2023-09-30T06:27:49;7.93;;;4.60;;
74612;SDS011;63119;51.788;8.824;2023-09-30T06:30:15;10.75;;;3.97;;
74612;SDS011;63119;51.788;8.824;2023-09-30T06:32:42;10.65;;;4.60;;
74612;SDS011;63119;51.788;8.824;2023-09-30T06:35:07;14.48;;;5.50;;
74612;SDS011;63119;51.788;8.824;2023-09-30T06:37:36;10.27;;;4.68;;
74612;SDS011;63119;51.788;8.824;2023-09-30T06:40:05;16.27;;;4.88;;
74612;SDS011;63119;51.788;8.824;2023-09-30T06:44:58;8.60;;;4.57;;
74612;SDS011;63119;51.788;8.824;2023-09-30T06:47:24;10.27;;;3.92;;
74612;SDS011;63119;51.788;8.824;2023-09-30T06:49:49;11.30;;;3.80;;
74612;SDS011;63119;51.788;8.824;2023-09-30T06:52:14;12.18;;;5.13;;
74612;SDS011;63119;51.788;8.824;2023-09-30T06:54:40;13.85;;;4.45;;
74612;SDS011;63119;51.788;8.824;2023-09-30T06:57:05;11.53;;;3.87;;
74612;SDS011;63119;51.788;8.824;2023-09-30T06:59:32;9.30;;;3.90;;
74612;SDS011;63119;51.788;8.824;2023-09-30T07:01:57;12.75;;;3.78;;
74612;SDS011;63119;51.788;8.824;2023-09-30T07:04:22;9.13;;;3.25;;
74612;SDS011;63119;51.788;8.824;2023-09-30T07:06:48;12.30;;;4.30;;
74612;SDS011;63119;51.788;8.824;2023-09-30T07:09:13;13.77;;;4.37;;
74612;SDS011;63119;51.788;8.824;2023-09-30T07:11:38;12.17;;;3.20;;
74612;SDS011;63119;51.788;8.824;2023-09-30T07:14:04;15.77;;;3.83;;
74612;SDS011;63119;51.788;8.824;2023-09-30T07:16:29;14.50;;;3.50;;
74612;SDS011;63119;51.788;8.824;2023-09-30T07:18:55;13.05;;;3.80;;
74612;SDS011;63119;51.788;8.824;2023-09-30T07:21:20;14.20;;;4.18;;
74612;SDS011;63119;51.788;8.824;2023-09-30T07:23:46;14.43;;;3.88;;
74612;SDS011;63119;51.788;8.824;2023-09-30T07:26:12;12.68;;;3.33;;
74612;SDS011;63119;51.788;8.824;2023-09-30T07:28:38;12.70;;;3.10;;
74612;SDS011;63119;51.788;8.824;2023-09-30T07:31:03;14.93;;;3.20;;
74612;SDS011;63119;51.788;8.824;2023-09-30T07:33:28;14.50;;;3.73;;
74612;SDS011;63119;51.788;8.824;2023-09-30T07:35:54;9.93;;;3.30;;
74612;SDS011;63119;51.788;8.824;2023-09-30T07:38:20;12.77;;;3.65;;
74612;SDS011;63119;51.788;8.824;2023-09-30T07:40:46;11.90;;;3.97;;
74612;SDS011;63119;51.788;8.824;2023-09-30T07:43:11;12.07;;;3.17;;
74612;SDS011;63119;51.788;8.824;2023-09-30T07:45:37;15.68;;;3.80;;
74612;SDS011;63119;51.788;8.824;2023-09-30T07:48:03;17.30;;;4.40;;
74612;SDS011;63119;51.788;8.824;2023-09-30T07:50:29;13.00;;;3.65;;
74612;SDS011;63119;51.788;8.824;2023-09-30T07:52:55;13.15;;;3.15;;
74612;SDS011;63119;51.788;8.824;2023-09-30T07:55:20;12.07;;;2.70;;
74612;SDS011;63119;51.788;8.824;2023-09-30T07:57:46;15.95;;;3.47;;
74612;SDS011;63119;51.788;8.824;2023-09-30T08:00:11;12.57;;;3.37;;
74612;SDS011;63119;51.788;8.824;2023-09-30T08:02:40;13.60;;;4.55;;
74612;SDS011;63119;51.788;8.824;2023-09-30T08:05:06;13.23;;;3.08;;
74612;SDS011;63119;51.788;8.824;2023-09-30T08:07:32;13.52;;;3.40;;
74612;SDS011;63119;51.788;8.824;2023-09-30T08:09:58;11.65;;;3.63;;
74612;SDS011;63119;51.788;8.824;2023-09-30T08:12:24;14.23;;;4.63;;
74612;SDS011;63119;51.788;8.824;2023-09-30T08:14:49;9.87;;;3.80;;
74612;SDS011;63119;51.788;8.824;2023-09-30T08:17:16;17.58;;;3.83;;
74612;SDS011;63119;51.788;8.824;2023-09-30T08:19:42;9.50;;;3.17;;
74612;SDS011;63119;51.788;8.824;2023-09-30T08:22:08;14.27;;;3.80;;
74612;SDS011;63119;51.788;8.824;2023-09-30T08:24:34;15.00;;;3.47;;
74612;SDS011;63119;51.788;8.824;2023-09-30T08:27:00;15.90;;;4.20;;
74612;SDS011;63119;51.788;8.824;2023-09-30T08:29:25;14.03;;;4.10;;
74612;SDS011;63119;51.788;8.824;2023-09-30T08:31:51;9.93;;;3.23;;
74612;SDS011;63119;51.788;8.824;2023-09-30T08:34:16;9.90;;;3.07;;
74612;SDS011;63119;51.788;8.824;2023-09-30T08:36:42;10.95;;;3.60;;
74612;SDS011;63119;51.788;8.824;2023-09-30T08:39:08;12.98;;;3.67;;
74612;SDS011;63119;51.788;8.824;2023-09-30T08:41:35;16.05;;;3.80;;
74612;SDS011;63119;51.788;8.824;2023-09-30T08:44:01;11.52;;;3.25;;
74612;SDS011;63119;51.788;8.824;2023-09-30T08:46:31;10.63;;;3.10;;
74612;SDS011;63119;51.788;8.824;2023-09-30T08:49:00;9.35;;;3.17;;
74612;SDS011;63119;51.788;8.824;2023-09-30T08:51:28;16.75;;;3.72;;
74612;SDS011;63119;51.788;8.824;2023-09-30T08:53:54;12.40;;;3.13;;
74612;SDS011;63119;51.788;8.824;2023-09-30T08:56:22;11.40;;;3.45;;
74612;SDS011;63119;51.788;8.824;2023-09-30T08:58:52;12.20;;;3.65;;
74612;SDS011;63119;51.788;8.824;2023-09-30T09:01:21;12.95;;;4.40;;
74612;SDS011;63119;51.788;8.824;2023-09-30T09:03:47;13.40;;;4.20;;
74612;SDS011;63119;51.788;8.824;2023-09-30T09:06:17;11.65;;;3.80;;
74612;SDS011;63119;51.788;8.824;2023-09-30T09:08:43;11.07;;;3.50;;
74612;SDS011;63119;51.788;8.824;2023-09-30T09:11:08;13.87;;;3.80;;
74612;SDS011;63119;51.788;8.824;2023-09-30T09:13:45;15.20;;;3.88;;
74612;SDS011;63119;51.788;8.824;2023-09-30T09:16:14;13.75;;;3.80;;
74612;SDS011;63119;51.788;8.824;2023-09-30T09:18:41;9.77;;;3.38;;
74612;SDS011;63119;51.788;8.824;2023-09-30T09:21:07;12.32;;;4.18;;
74612;SDS011;63119;51.788;8.824;2023-09-30T09:23:38;12.20;;;4.03;;
74612;SDS011;63119;51.788;8.824;2023-09-30T09:26:04;12.27;;;4.10;;
74612;SDS011;63119;51.788;8.824;2023-09-30T09:28:34;13.05;;;3.58;;
74612;SDS011;63119;51.788;8.824;2023-09-30T09:31:01;13.65;;;4.00;;
74612;SDS011;63119;51.788;8.824;2023-09-30T09:33:36;10.13;;;3.53;;
74612;SDS011;63119;51.788;8.824;2023-09-30T09:36:02;12.10;;;3.50;;
74612;SDS011;63119;51.788;8.824;2023-09-30T09:38:27;17.50;;;3.92;;
74612;SDS011;63119;51.788;8.824;2023-09-30T09:41:08;7.93;;;2.85;;
74612;SDS011;63119;51.788;8.824;2023-09-30T09:43:35;9.80;;;2.90;;
74612;SDS011;63119;51.788;8.824;2023-09-30T09:46:02;9.80;;;3.28;;
74612;SDS011;63119;51.788;8.824;2023-09-30T09:48:32;9.48;;;3.05;;
74612;SDS011;63119;51.788;8.824;2023-09-30T09:50:58;12.35;;;3.42;;
74612;SDS011;63119;51.788;8.824;2023-09-30T09:53:24;11.30;;;3.17;;
74612;SDS011;63119;51.788;8.824;2023-09-30T09:55:51;11.85;;;3.33;;
74612;SDS011;63119;51.788;8.824;2023-09-30T09:58:17;7.28;;;2.72;;
74612;SDS011;63119;51.788;8.824;2023-09-30T10:00:45;11.57;;;2.95;;
74612;SDS011;63119;51.788;8.824;2023-09-30T10:03:10;8.02;;;2.95;;
74612;SDS011;63119;51.788;8.824;2023-09-30T10:05:37;12.93;;;3.42;;
74612;SDS011;63119;51.788;8.824;2023-09-30T10:08:08;7.47;;;2.70;;
74612;SDS011;63119;51.788;8.824;2023-09-30T10:10:39;8.70;;;3.00;;
74612;SDS011;63119;51.788;8.824;2023-09-30T10:13:05;8.32;;;2.97;;
74612;SDS011;63119;51.788;8.824;2023-09-30T10:15:34;9.32;;;3.08;;
74612;SDS011;63119;51.788;8.824;2023-09-30T10:20:37;9.02;;;3.10;;
74612;SDS011;63119;51.788;8.824;2023-09-30T10:23:19;13.65;;;3.33;;
74612;SDS011;63119;51.788;8.824;2023-09-30T10:25:46;10.60;;;2.83;;
74612;SDS011;63119;51.788;8.824;2023-09-30T10:28:54;9.13;;;2.97;;
74612;SDS011;63119;51.788;8.824;2023-09-30T10:31:10;7.45;;;2.72;;
74612;SDS011;63119;51.788;8.824;2023-09-30T10:36:28;9.55;;;2.60;;
74612;SDS011;63119;51.788;8.824;2023-09-30T10:38:54;10.00;;;2.40;;
74612;SDS011;63119;51.788;8.824;2023-09-30T10:41:48;8.88;;;2.55;;
74612;SDS011;63119;51.788;8.824;2023-09-30T10:46:52;5.93;;;2.38;;
74612;SDS011;63119;51.788;8.824;2023-09-30T10:51:49;6.72;;;2.15;;
74612;SDS011;63119;51.788;8.824;2023-09-30T10:54:17;6.03;;;2.40;;
74612;SDS011;63119;51.788;8.824;2023-09-30T10:56:47;6.88;;;2.50;;
74612;SDS011;63119;51.788;8.824;2023-09-30T10:59:18;10.93;;;2.70;;
74612;SDS011;63119;51.788;8.824;2023-09-30T11:01:44;9.52;;;2.70;;
74612;SDS011;63119;51.788;8.824;2023-09-30T11:04:09;6.47;;;1.77;;
74612;SDS011;63119;51.788;8.824;2023-09-30T11:06:34;7.27;;;1.57;;
74612;SDS011;63119;51.788;8.824;2023-09-30T11:09:00;7.63;;;2.00;;
74612;SDS011;63119;51.788;8.824;2023-09-30T11:11:40;6.68;;;1.98;;
74612;SDS011;63119;51.788;8.824;2023-09-30T11:16:54;6.72;;;2.28;;
74612;SDS011;63119;51.788;8.824;2023-09-30T11:19:20;5.55;;;2.15;;
74612;SDS011;63119;51.788;8.824;2023-09-30T11:21:46;6.45;;;2.20;;
74612;SDS011;63119;51.788;8.824;2023-09-30T11:24:13;5.78;;;2.08;;
74612;SDS011;63119;51.788;8.824;2023-09-30T11:26:39;7.20;;;2.00;;
74612;SDS011;63119;51.788;8.824;2023-09-30T11:29:07;6.10;;;2.20;;
74612;SDS011;63119;51.788;8.824;2023-09-30T11:31:33;6.53;;;2.15;;
74612;SDS011;63119;51.788;8.824;2023-09-30T11:33:59;10.43;;;2.10;;
74612;SDS011;63119;51.788;8.824;2023-09-30T11:36:29;7.00;;;2.25;;
74612;SDS011;63119;51.788;8.824;2023-09-30T11:38:59;7.15;;;2.00;;
74612;SDS011;63119;51.788;8.824;2023-09-30T11:41:38;6.40;;;1.75;;
74612;SDS011;63119;51.788;8.824;2023-09-30T11:44:06;11.90;;;3.50;;
74612;SDS011;63119;51.788;8.824;2023-09-30T11:49:24;7.57;;;2.38;;
74612;SDS011;63119;51.788;8.824;2023-09-30T11:54:27;10.73;;;3.15;;
74612;SDS011;63119;51.788;8.824;2023-09-30T11:56:57;6.80;;;2.97;;
74612;SDS011;63119;51.788;8.824;2023-09-30T11:59:23;5.50;;;2.25;;
74612;SDS011;63119;51.788;8.824;2023-09-30T12:01:49;8.15;;;1.77;;
74612;SDS011;63119;51.788;8.824;2023-09-30T12:04:16;8.25;;;2.00;;
74612;SDS011;63119;51.788;8.824;2023-09-30T12:06:43;7.10;;;1.70;;
74612;SDS011;63119;51.788;8.824;2023-09-30T12:09:09;6.03;;;2.13;;
74612;SDS011;63119;51.788;8.824;2023-09-30T12:11:38;6.00;;;2.15;;
74612;SDS011;63119;51.788;8.824;2023-09-30T12:14:04;5.95;;;1.75;;
74612;SDS011;63119;51.788;8.824;2023-09-30T12:16:29;6.13;;;2.22;;
74612;SDS011;63119;51.788;8.824;2023-09-30T12:18:55;6.45;;;2.00;;
74612;SDS011;63119;51.788;8.824;2023-09-30T12:21:21;5.82;;;2.17;;
74612;SDS011;63119;51.788;8.824;2023-09-30T12:23:47;4.82;;;2.35;;
74612;SDS011;63119;51.788;8.824;2023-09-30T12:26:13;7.05;;;1.83;;
74612;SDS011;63119;51.788;8.824;2023-09-30T12:28:39;7.50;;;1.92;;
74612;SDS011;63119;51.788;8.824;2023-09-30T12:31:05;5.47;;;1.95;;
74612;SDS011;63119;51.788;8.824;2023-09-30T12:33:31;6.78;;;2.00;;
74612;SDS011;63119;51.788;8.824;2023-09-30T12:35:57;6.65;;;1.73;;
74612;SDS011;63119;51.788;8.824;2023-09-30T12:38:23;5.93;;;2.00;;
74612;SDS011;63119;51.788;8.824;2023-09-30T12:40:50;4.38;;;1.83;;
74612;SDS011;63119;51.788;8.824;2023-09-30T12:43:16;4.55;;;1.50;;
74612;SDS011;63119;51.788;8.824;2023-09-30T12:45:42;6.82;;;1.92;;
74612;SDS011;63119;51.788;8.824;2023-09-30T12:48:07;6.93;;;1.80;;
74612;SDS011;63119;51.788;8.824;2023-09-30T12:50:32;7.53;;;2.07;;
74612;SDS011;63119;51.788;8.824;2023-09-30T12:52:57;7.27;;;1.67;;
74612;SDS011;63119;51.788;8.824;2023-09-30T12:55:24;5.95;;;2.22;;
74612;SDS011;63119;51.788;8.824;2023-09-30T12:57:49;8.65;;;1.98;;
74612;SDS011;63119;51.788;8.824;2023-09-30T13:00:15;7.67;;;1.90;;
74612;SDS011;63119;51.788;8.824;2023-09-30T13:02:41;5.55;;;1.80;;
74612;SDS011;63119;51.788;8.824;2023-09-30T13:05:06;5.13;;;1.50;;
74612;SDS011;63119;51.788;8.824;2023-09-30T13:07:32;5.55;;;1.88;;
74612;SDS011;63119;51.788;8.824;2023-09-30T13:09:58;6.88;;;1.50;;
74612;SDS011;63119;51.788;8.824;2023-09-30T13:12:25;7.78;;;1.60;;
74612;SDS011;63119;51.788;8.824;2023-09-30T13:14:51;5.50;;;1.48;;
74612;SDS011;63119;51.788;8.824;2023-09-30T13:17:18;5.60;;;2.13;;
74612;SDS011;63119;51.788;8.824;2023-09-30T13:19:44;5.27;;;1.80;;
74612;SDS011;63119;51.788;8.824;2023-09-30T13:22:09;6.63;;;1.97;;
74612;SDS011;63119;51.788;8.824;2023-09-30T13:24:34;4.03;;;1.90;;
74612;SDS011;63119;51.788;8.824;2023-09-30T13:27:04;4.40;;;1.40;;
74612;SDS011;63119;51.788;8.824;2023-09-30T13:29:29;3.50;;;1.50;;
74612;SDS011;63119;51.788;8.824;2023-09-30T13:31:54;7.17;;;1.77;;
74612;SDS011;63119;51.788;8.824;2023-09-30T13:34:20;4.77;;;1.73;;
74612;SDS011;63119;51.788;8.824;2023-09-30T13:36:45;6.13;;;1.80;;
74612;SDS011;63119;51.788;8.824;2023-09-30T13:39:10;6.90;;;1.87;;
74612;SDS011;63119;51.788;8.824;2023-09-30T13:41:38;5.55;;;1.75;;
74612;SDS011;63119;51.788;8.824;2023-09-30T13:44:03;5.20;;;2.03;;
74612;SDS011;63119;51.788;8.824;2023-09-30T13:46:28;5.32;;;1.70;;
74612;SDS011;63119;51.788;8.824;2023-09-30T13:48:55;6.18;;;1.60;;
74612;SDS011;63119;51.788;8.824;2023-09-30T13:51:21;5.13;;;1.30;;
74612;SDS011;63119;51.788;8.824;2023-09-30T13:53:46;6.13;;;1.80;;
74612;SDS011;63119;51.788;8.824;2023-09-30T13:56:11;6.57;;;2.07;;
74612;SDS011;63119;51.788;8.824;2023-09-30T13:58:36;4.73;;;1.50;;
74612;SDS011;63119;51.788;8.824;2023-09-30T14:01:02;6.30;;;1.80;;
74612;SDS011;63119;51.788;8.824;2023-09-30T14:03:28;6.97;;;2.00;;
74612;SDS011;63119;51.788;8.824;2023-09-30T14:05:54;8.48;;;1.95;;
74612;SDS011;63119;51.788;8.824;2023-09-30T14:08:21;5.47;;;1.77;;
74612;SDS011;63119;51.788;8.824;2023-09-30T14:10:46;6.53;;;1.57;;
74612;SDS011;63119;51.788;8.824;2023-09-30T14:13:11;6.27;;;1.70;;
74612;SDS011;63119;51.788;8.824;2023-09-30T14:15:37;6.60;;;2.30;;
74612;SDS011;63119;51.788;8.824;2023-09-30T14:18:03;7.93;;;2.27;;
74612;SDS011;63119;51.788;8.824;2023-09-30T14:20:28;6.00;;;1.67;;
74612;SDS011;63119;51.788;8.824;2023-09-30T14:22:54;4.60;;;1.88;;
74612;SDS011;63119;51.788;8.824;2023-09-30T14:25:22;7.15;;;2.25;;
74612;SDS011;63119;51.788;8.824;2023-09-30T14:27:48;7.20;;;2.30;;
74612;SDS011;63119;51.788;8.824;2023-09-30T14:30:14;6.35;;;1.90;;
74612;SDS011;63119;51.788;8.824;2023-09-30T14:32:40;6.57;;;2.00;;
74612;SDS011;63119;51.788;8.824;2023-09-30T14:35:06;5.93;;;1.85;;
74612;SDS011;63119;51.788;8.824;2023-09-30T14:37:32;6.35;;;2.15;;
74612;SDS011;63119;51.788;8.824;2023-09-30T14:39:57;7.03;;;2.55;;
74612;SDS011;63119;51.788;8.824;2023-09-30T14:42:22;10.10;;;2.50;;
74612;SDS011;63119;51.788;8.824;2023-09-30T14:44:48;6.78;;;1.98;;
74612;SDS011;63119;51.788;8.824;2023-09-30T14:47:13;6.60;;;1.83;;
74612;SDS011;63119;51.788;8.824;2023-09-30T14:49:39;6.97;;;1.70;;
74612;SDS011;63119;51.788;8.824;2023-09-30T14:52:05;5.72;;;1.92;;
74612;SDS011;63119;51.788;8.824;2023-09-30T14:54:30;7.00;;;1.80;;
74612;SDS011;63119;51.788;8.824;2023-09-30T14:56:56;8.68;;;2.03;;
74612;SDS011;63119;51.788;8.824;2023-09-30T14:59:21;6.97;;;2.13;;
74612;SDS011;63119;51.788;8.824;2023-09-30T15:01:47;5.83;;;1.57;;